createdAt,value
2019-03-20T00:01:50.646Z,4.90
2019-03-20T00:06:54.889Z,5.00
2019-03-20T00:11:59.171Z,4.80
2019-03-20T00:17:04.122Z,4.70
2019-03-20T00:22:08.413Z,4.70
2019-03-20T00:27:12.593Z,4.60
2019-03-20T00:32:16.783Z,4.60
2019-03-20T00:37:20.992Z,4.60
2019-03-20T00:42:25.241Z,4.40
2019-03-20T00:47:29.427Z,4.50
2019-03-20T00:52:33.619Z,4.50
2019-03-20T00:57:37.830Z,4.50
2019-03-20T01:02:42.036Z,4.50
2019-03-20T01:07:46.511Z,4.40
2019-03-20T01:12:50.809Z,4.30
2019-03-20T01:17:55.065Z,4.40
2019-03-20T01:22:59.343Z,4.40
2019-03-20T01:28:03.506Z,4.40
2019-03-20T01:33:09.198Z,4.40
2019-03-20T01:38:13.439Z,4.30
2019-03-20T01:43:17.611Z,4.40
2019-03-20T01:48:21.778Z,4.30
2019-03-20T01:53:25.996Z,4.30
2019-03-20T01:58:30.394Z,4.40
2019-03-20T02:03:34.673Z,4.40
2019-03-20T02:08:38.922Z,4.20
2019-03-20T02:13:43.103Z,4.10
2019-03-20T02:18:47.426Z,4.30
2019-03-20T02:23:51.616Z,4.30
2019-03-20T02:28:55.778Z,4.20
2019-03-20T02:33:59.939Z,4.20
2019-03-20T02:39:05.841Z,4.20
2019-03-20T02:44:10.074Z,4.10
2019-03-20T02:49:14.341Z,4.10
2019-03-20T02:54:18.532Z,4.00
2019-03-20T02:59:22.700Z,4.10
2019-03-20T03:04:26.885Z,4.00
2019-03-20T03:09:31.152Z,4.00
2019-03-20T03:14:35.328Z,4.10
2019-03-20T03:19:39.547Z,4.10
2019-03-20T03:24:43.804Z,4.00
2019-03-20T03:29:47.977Z,4.00
2019-03-20T03:34:52.177Z,4.00
2019-03-20T03:39:56.391Z,4.10
2019-03-20T03:45:00.632Z,4.10
2019-03-20T03:50:06.108Z,3.90
2019-03-20T03:55:10.333Z,3.70
2019-03-20T04:00:15.006Z,3.50
2019-03-20T04:05:19.256Z,3.50
2019-03-20T04:10:23.497Z,3.50
2019-03-20T04:15:27.757Z,3.50
2019-03-20T04:20:32.036Z,3.50
2019-03-20T04:25:36.245Z,3.60
2019-03-20T04:30:40.414Z,3.60
2019-03-20T04:35:44.672Z,3.80
2019-03-20T04:40:48.951Z,4.00
2019-03-20T04:45:53.189Z,3.90
2019-03-20T04:50:57.395Z,3.80
2019-03-20T04:56:01.583Z,3.70
2019-03-20T05:01:05.787Z,3.70
2019-03-20T05:06:09.982Z,3.90
2019-03-20T05:11:14.350Z,3.90
2019-03-20T05:16:18.610Z,3.80
2019-03-20T05:21:22.811Z,4.00
2019-03-20T05:26:26.984Z,3.80
2019-03-20T05:31:31.178Z,3.80
2019-03-20T05:36:35.383Z,4.00
2019-03-20T05:41:39.582Z,3.90
2019-03-20T05:46:43.842Z,4.00
2019-03-20T05:51:48.008Z,4.10
2019-03-20T05:56:52.196Z,4.10
2019-03-20T06:01:56.471Z,4.20
2019-03-20T06:07:00.706Z,4.40
2019-03-20T06:12:05.069Z,4.40
2019-03-20T06:17:09.276Z,4.40
2019-03-20T06:22:13.467Z,4.40
2019-03-20T06:27:17.672Z,4.50
2019-03-20T06:32:22.115Z,4.80
2019-03-20T06:37:32.475Z,5.30
2019-03-20T06:42:32.244Z,5.70
2019-03-20T06:47:36.456Z,6.00
2019-03-20T06:52:40.614Z,6.50
2019-03-20T06:57:44.845Z,6.50
2019-03-20T07:02:49.846Z,7.50
2019-03-20T07:07:53.799Z,8.90
2019-03-20T07:12:57.989Z,11.10
2019-03-20T07:18:02.204Z,11.70
2019-03-20T07:23:06.402Z,11.70
2019-03-20T07:33:14.304Z,13.10
2019-03-20T07:38:18.768Z,13.90
2019-03-20T07:43:23.038Z,14.90
2019-03-20T07:48:27.233Z,16.50
2019-03-20T07:53:31.430Z,15.70
2019-03-20T07:58:35.694Z,16.50
2019-03-20T08:03:39.942Z,16.10
2019-03-20T08:08:44.192Z,16.40
2019-03-20T08:13:48.471Z,16.40
2019-03-20T08:18:52.703Z,17.30
2019-03-20T08:23:56.942Z,16.80
2019-03-20T08:29:01.176Z,18.90
2019-03-20T08:34:05.495Z,20.20
2019-03-20T08:39:09.747Z,18.10
2019-03-20T08:44:14.030Z,17.80
2019-03-20T08:49:18.219Z,17.80
2019-03-20T08:54:22.435Z,18.50
2019-03-20T08:59:26.724Z,18.80
2019-03-20T09:04:31.073Z,18.30
2019-03-20T09:09:35.357Z,16.90
2019-03-20T09:14:39.575Z,15.10
2019-03-20T09:19:43.860Z,14.00
2019-03-20T09:24:48.243Z,13.00
2019-03-20T09:29:52.537Z,13.60
2019-03-20T09:40:00.417Z,18.40
2019-03-20T09:45:06.636Z,19.20
2019-03-20T09:50:12.435Z,21.90
2019-03-20T09:55:16.647Z,23.40
2019-03-20T10:00:23.248Z,23.00
2019-03-20T10:05:27.449Z,23.40
2019-03-20T10:10:31.755Z,23.80
2019-03-20T10:15:36.013Z,22.70
2019-03-20T10:20:40.215Z,22.50
2019-03-20T10:25:45.031Z,21.60
2019-03-20T10:35:53.158Z,19.30
2019-03-20T10:40:57.379Z,19.50
2019-03-20T10:46:01.617Z,20.70
2019-03-20T10:51:05.928Z,21.10
2019-03-20T10:56:10.172Z,21.30
2019-03-20T11:01:14.403Z,20.90
2019-03-20T11:06:18.655Z,21.30
2019-03-20T11:11:27.360Z,22.50
2019-03-20T11:16:28.869Z,22.90
2019-03-20T11:21:33.098Z,23.50
2019-03-20T11:26:37.415Z,21.90
2019-03-20T11:31:41.668Z,21.30
2019-03-20T11:36:45.889Z,19.50
2019-03-20T11:41:50.095Z,18.60
2019-03-20T11:46:54.264Z,17.70
2019-03-20T11:51:58.520Z,17.50
2019-03-20T11:57:02.707Z,17.40
2019-03-20T12:02:07.072Z,16.70
2019-03-20T12:07:11.255Z,16.30
2019-03-20T12:12:15.492Z,16.10
2019-03-20T12:17:20.320Z,15.80
2019-03-20T12:22:24.783Z,15.60
2019-03-20T12:27:28.977Z,15.20
2019-03-20T12:32:33.253Z,15.10
2019-03-20T12:37:37.434Z,15.20
2019-03-20T12:42:41.621Z,15.20
2019-03-20T12:47:45.888Z,15.00
2019-03-20T12:52:50.084Z,15.20
2019-03-20T12:57:54.311Z,15.00
2019-03-20T13:02:58.719Z,15.10
2019-03-20T13:08:06.028Z,15.20
2019-03-20T13:13:09.067Z,15.40
2019-03-20T13:18:13.314Z,15.40
2019-03-20T13:23:20.908Z,15.20
2019-03-20T13:28:25.165Z,15.00
2019-03-20T13:33:29.377Z,14.70
2019-03-20T13:38:33.576Z,14.60
2019-03-20T13:43:37.777Z,14.80
2019-03-20T13:48:42.059Z,14.90
2019-03-20T13:53:46.236Z,15.00
2019-03-20T13:58:52.225Z,15.20
2019-03-20T14:03:56.351Z,15.20
2019-03-20T14:09:00.775Z,15.10
2019-03-20T14:14:05.044Z,15.10
2019-03-20T14:19:10.647Z,14.70
2019-03-20T14:24:14.972Z,14.50
2019-03-20T14:29:19.145Z,14.50
2019-03-20T14:34:23.347Z,14.70
2019-03-20T14:39:27.554Z,14.50
2019-03-20T14:44:31.786Z,14.60
2019-03-20T14:49:35.992Z,14.70
2019-03-20T14:54:40.198Z,14.80
2019-03-20T14:59:44.376Z,14.80
2019-03-20T15:04:48.652Z,14.60
2019-03-20T15:09:52.887Z,14.70
2019-03-20T15:14:57.118Z,14.60
2019-03-20T15:20:01.358Z,14.50
2019-03-20T15:25:05.928Z,14.40
2019-03-20T15:30:12.585Z,14.30
2019-03-20T15:35:16.790Z,14.10
2019-03-20T15:40:21.016Z,14.20
2019-03-20T15:45:25.367Z,14.30
2019-03-20T15:50:29.576Z,14.30
2019-03-20T15:55:33.838Z,14.30
2019-03-20T16:00:38.023Z,14.30
2019-03-20T16:05:42.191Z,14.20
2019-03-20T16:10:46.432Z,14.10
2019-03-20T16:15:50.684Z,14.10
2019-03-20T16:20:55.148Z,14.10
2019-03-20T16:25:59.386Z,14.00
2019-03-20T16:31:03.643Z,14.00
2019-03-20T16:36:07.849Z,13.90
2019-03-20T16:41:16.760Z,14.00
2019-03-20T16:46:18.075Z,13.80
2019-03-20T16:51:22.271Z,13.90
2019-03-20T16:56:26.494Z,13.80
2019-03-20T17:01:30.700Z,13.80
2019-03-20T17:06:34.917Z,13.70
2019-03-20T17:11:39.138Z,13.60
2019-03-20T17:16:43.377Z,13.60
2019-03-20T17:21:47.609Z,13.60
2019-03-20T17:26:51.843Z,13.60
2019-03-20T17:31:57.025Z,13.60
2019-03-20T17:37:01.214Z,13.50
2019-03-20T17:42:05.470Z,13.50
2019-03-20T17:47:09.742Z,13.50
2019-03-20T17:52:14.128Z,13.50
2019-03-20T17:57:18.314Z,13.50
2019-03-20T18:02:24.277Z,13.30
2019-03-20T18:07:28.504Z,13.20
2019-03-20T18:12:32.719Z,13.10
2019-03-20T18:17:36.950Z,13.10
2019-03-20T18:22:41.172Z,13.00
2019-03-20T18:27:45.370Z,13.00
2019-03-20T18:32:49.584Z,12.90
2019-03-20T18:37:53.870Z,12.90
2019-03-20T18:42:58.171Z,12.90
2019-03-20T18:48:02.489Z,12.90
2019-03-20T18:53:06.836Z,13.00
2019-03-20T18:58:11.033Z,13.10
2019-03-20T19:03:15.490Z,13.10
2019-03-20T19:08:19.713Z,13.00
2019-03-20T19:13:24.534Z,12.90
2019-03-20T19:18:29.029Z,12.80
2019-03-20T19:23:33.279Z,12.80
2019-03-20T19:28:37.488Z,12.80
2019-03-20T19:33:41.811Z,12.70
2019-03-20T19:38:46.022Z,12.60
2019-03-20T19:43:50.245Z,12.60
2019-03-20T19:48:54.474Z,12.50
2019-03-20T19:53:58.682Z,12.40
2019-03-20T19:59:02.981Z,12.50
2019-03-20T20:04:07.174Z,12.50
2019-03-20T20:09:11.393Z,12.30
2019-03-20T20:14:15.746Z,12.20
2019-03-20T20:19:19.950Z,12.10
2019-03-20T20:24:24.195Z,12.00
2019-03-20T20:29:28.416Z,11.90
2019-03-20T20:34:32.692Z,11.70
2019-03-20T20:39:36.887Z,11.70
2019-03-20T20:44:41.110Z,11.80
2019-03-20T20:49:45.452Z,11.80
2019-03-20T20:54:49.684Z,11.50
2019-03-20T20:59:53.885Z,11.40
2019-03-20T21:04:58.082Z,11.30
2019-03-20T21:10:02.367Z,11.30
2019-03-20T21:15:17.769Z,11.10
2019-03-20T21:20:22.488Z,11.00
2019-03-20T21:25:27.255Z,10.90
2019-03-20T21:30:55.254Z,10.90
2019-03-20T21:36:41.929Z,10.80
2019-03-20T21:42:27.295Z,10.90
2019-03-20T21:47:36.514Z,11.10
2019-03-20T21:52:41.233Z,11.20
2019-03-20T21:57:56.185Z,11.30
2019-03-20T22:03:00.920Z,11.50
2019-03-20T22:08:05.625Z,11.60
2019-03-20T22:13:33.376Z,11.60
2019-03-20T22:19:33.765Z,11.90
2019-03-20T22:25:32.246Z,11.90
2019-03-20T22:30:36.991Z,11.90
2019-03-20T22:36:07.003Z,11.90
2019-03-20T22:41:54.558Z,12.00
2019-03-20T22:47:33.816Z,12.00
2019-03-20T22:53:13.978Z,12.00
2019-03-20T22:58:40.003Z,12.10
2019-03-20T23:03:49.284Z,11.90
2019-03-20T23:08:56.143Z,12.00
2019-03-20T23:14:00.891Z,12.10
2019-03-20T23:19:05.688Z,12.20
2019-03-20T23:24:10.551Z,12.10
2019-03-20T23:29:15.308Z,12.00
2019-03-20T23:34:20.046Z,12.10
2019-03-20T23:39:24.753Z,12.10
2019-03-20T23:44:29.493Z,12.10
2019-03-20T23:49:34.221Z,12.10
2019-03-20T23:54:47.615Z,12.30
2019-03-20T23:59:53.200Z,12.30
